sensor_id;sensor_type;location;lat;lon;timestamp;pressure;altitude;pressure_sealevel;temperature;humidity
28628;BME280;15815;46.760;19.604;2023-09-08T00:01:43;100903.44;;;18.65;65.73
28628;BME280;15815;46.760;19.604;2023-09-08T00:04:09;100906.19;;;18.69;66.30
28628;BME280;15815;46.760;19.604;2023-09-08T00:06:34;100913.50;;;18.70;66.01
28628;BME280;15815;46.760;19.604;2023-09-08T00:09:02;100912.69;;;18.69;65.89
28628;BME280;15815;46.760;19.604;2023-09-08T00:11:28;100909.16;;;18.62;65.85
28628;BME280;15815;46.760;19.604;2023-09-08T00:13:54;100910.75;;;18.66;65.38
28628;BME280;15815;46.760;19.604;2023-09-08T00:16:19;100896.97;;;18.61;65.57
28628;BME280;15815;46.760;19.604;2023-09-08T00:18:45;100904.81;;;18.57;65.56
28628;BME280;15815;46.760;19.604;2023-09-08T00:21:10;100905.72;;;18.54;66.72
28628;BME280;15815;46.760;19.604;2023-09-08T00:23:37;100914.59;;;18.56;66.33
28628;BME280;15815;46.760;19.604;2023-09-08T00:26:06;100904.66;;;18.48;66.79
28628;BME280;15815;46.760;19.604;2023-09-08T00:28:31;100900.41;;;18.40;66.79
28628;BME280;15815;46.760;19.604;2023-09-08T00:30:57;100904.41;;;18.42;66.24
28628;BME280;15815;46.760;19.604;2023-09-08T00:33:22;100910.44;;;18.44;66.03
28628;BME280;15815;46.760;19.604;2023-09-08T00:35:48;100907.59;;;18.44;66.59
28628;BME280;15815;46.760;19.604;2023-09-08T00:38:14;100907.16;;;18.46;66.47
28628;BME280;15815;46.760;19.604;2023-09-08T00:40:40;100907.16;;;18.46;66.67
28628;BME280;15815;46.760;19.604;2023-09-08T00:43:05;100915.34;;;18.44;68.27
28628;BME280;15815;46.760;19.604;2023-09-08T00:45:31;100911.34;;;18.41;67.44
28628;BME280;15815;46.760;19.604;2023-09-08T00:47:56;100914.63;;;18.40;67.26
28628;BME280;15815;46.760;19.604;2023-09-08T00:50:22;100908.22;;;18.36;67.08
28628;BME280;15815;46.760;19.604;2023-09-08T00:52:47;100915.56;;;18.33;67.54
28628;BME280;15815;46.760;19.604;2023-09-08T00:55:14;100898.06;;;18.18;67.63
28628;BME280;15815;46.760;19.604;2023-09-08T00:57:40;100899.13;;;18.25;67.30
28628;BME280;15815;46.760;19.604;2023-09-08T01:00:06;100914.16;;;18.25;68.30
28628;BME280;15815;46.760;19.604;2023-09-08T01:02:31;100884.72;;;18.15;68.02
28628;BME280;15815;46.760;19.604;2023-09-08T01:04:58;100896.38;;;18.21;67.77
28628;BME280;15815;46.760;19.604;2023-09-08T01:07:26;100898.50;;;18.17;69.58
28628;BME280;15815;46.760;19.604;2023-09-08T01:09:54;100899.75;;;18.16;68.61
28628;BME280;15815;46.760;19.604;2023-09-08T01:12:20;100880.88;;;18.06;68.11
28628;BME280;15815;46.760;19.604;2023-09-08T01:14:48;100893.25;;;18.15;68.54
28628;BME280;15815;46.760;19.604;2023-09-08T01:17:14;100884.00;;;18.11;68.92
28628;BME280;15815;46.760;19.604;2023-09-08T01:19:41;100883.28;;;18.07;69.03
28628;BME280;15815;46.760;19.604;2023-09-08T01:22:45;100898.75;;;18.06;69.46
28628;BME280;15815;46.760;19.604;2023-09-08T01:25:21;100895.19;;;18.02;69.53
28628;BME280;15815;46.760;19.604;2023-09-08T01:27:50;100886.28;;;18.00;69.46
28628;BME280;15815;46.760;19.604;2023-09-08T01:30:16;100888.78;;;17.98;69.72
28628;BME280;15815;46.760;19.604;2023-09-08T01:32:43;100887.19;;;17.97;69.83
28628;BME280;15815;46.760;19.604;2023-09-08T01:35:09;100885.84;;;17.85;70.31
28628;BME280;15815;46.760;19.604;2023-09-08T01:37:34;100884.88;;;17.92;69.26
28628;BME280;15815;46.760;19.604;2023-09-08T01:40:00;100879.34;;;17.85;69.98
28628;BME280;15815;46.760;19.604;2023-09-08T01:42:25;100889.03;;;17.87;69.73
28628;BME280;15815;46.760;19.604;2023-09-08T01:44:51;100889.03;;;17.87;69.81
28628;BME280;15815;46.760;19.604;2023-09-08T01:47:16;100886.63;;;17.86;69.31
28628;BME280;15815;46.760;19.604;2023-09-08T01:49:42;100887.53;;;17.83;70.56
28628;BME280;15815;46.760;19.604;2023-09-08T01:52:07;100888.53;;;17.73;71.01
28628;BME280;15815;46.760;19.604;2023-09-08T01:54:33;100885.19;;;17.78;70.92
28628;BME280;15815;46.760;19.604;2023-09-08T01:56:59;100879.28;;;17.69;71.07
28628;BME280;15815;46.760;19.604;2023-09-08T01:59:25;100883.00;;;17.66;70.49
28628;BME280;15815;46.760;19.604;2023-09-08T02:01:51;100874.31;;;17.53;71.42
28628;BME280;15815;46.760;19.604;2023-09-08T02:04:16;100883.72;;;17.50;71.79
28628;BME280;15815;46.760;19.604;2023-09-08T02:06:42;100891.88;;;17.48;72.44
28628;BME280;15815;46.760;19.604;2023-09-08T02:09:08;100901.09;;;17.55;72.43
28628;BME280;15815;46.760;19.604;2023-09-08T02:11:33;100897.72;;;17.60;74.39
28628;BME280;15815;46.760;19.604;2023-09-08T02:13:59;100893.81;;;17.54;72.04
28628;BME280;15815;46.760;19.604;2023-09-08T02:16:24;100880.41;;;17.35;71.78
28628;BME280;15815;46.760;19.604;2023-09-08T02:18:50;100886.88;;;17.36;72.28
28628;BME280;15815;46.760;19.604;2023-09-08T02:21:15;100883.69;;;17.34;72.71
28628;BME280;15815;46.760;19.604;2023-09-08T02:23:41;100876.47;;;17.29;73.67
28628;BME280;15815;46.760;19.604;2023-09-08T02:26:06;100889.53;;;17.26;71.91
28628;BME280;15815;46.760;19.604;2023-09-08T02:28:32;100877.47;;;17.19;72.51
28628;BME280;15815;46.760;19.604;2023-09-08T02:30:57;100875.22;;;17.10;73.94
28628;BME280;15815;46.760;19.604;2023-09-08T02:33:23;100885.47;;;17.24;72.30
28628;BME280;15815;46.760;19.604;2023-09-08T02:35:48;100879.81;;;17.24;71.81
28628;BME280;15815;46.760;19.604;2023-09-08T02:38:14;100876.22;;;17.20;73.04
28628;BME280;15815;46.760;19.604;2023-09-08T02:40:39;100883.06;;;17.22;75.85
28628;BME280;15815;46.760;19.604;2023-09-08T02:43:05;100885.13;;;17.22;74.05
28628;BME280;15815;46.760;19.604;2023-09-08T02:45:30;100872.47;;;17.07;73.78
28628;BME280;15815;46.760;19.604;2023-09-08T02:47:56;100878.69;;;16.98;75.25
28628;BME280;15815;46.760;19.604;2023-09-08T02:50:22;100884.38;;;16.98;75.47
28628;BME280;15815;46.760;19.604;2023-09-08T02:52:48;100886.41;;;16.97;75.48
28628;BME280;15815;46.760;19.604;2023-09-08T02:55:13;100878.09;;;16.87;75.12
28628;BME280;15815;46.760;19.604;2023-09-08T02:57:42;100879.13;;;16.96;75.29
28628;BME280;15815;46.760;19.604;2023-09-08T03:00:07;100888.22;;;16.88;75.37
28628;BME280;15815;46.760;19.604;2023-09-08T03:02:33;100872.00;;;16.88;74.81
28628;BME280;15815;46.760;19.604;2023-09-08T03:04:59;100877.66;;;16.88;75.42
28628;BME280;15815;46.760;19.604;2023-09-08T03:07:25;100884.94;;;16.89;75.16
28628;BME280;15815;46.760;19.604;2023-09-08T03:09:50;100862.75;;;16.84;75.26
28628;BME280;15815;46.760;19.604;2023-09-08T03:12:16;100863.63;;;16.81;76.33
28628;BME280;15815;46.760;19.604;2023-09-08T03:14:41;100860.03;;;16.77;75.41
28628;BME280;15815;46.760;19.604;2023-09-08T03:17:07;100866.88;;;16.80;75.33
28628;BME280;15815;46.760;19.604;2023-09-08T03:19:32;100894.03;;;16.81;75.94
28628;BME280;15815;46.760;19.604;2023-09-08T03:21:58;100874.81;;;16.65;76.21
28628;BME280;15815;46.760;19.604;2023-09-08T03:24:23;100881.16;;;16.76;77.85
28628;BME280;15815;46.760;19.604;2023-09-08T03:26:49;100875.47;;;16.76;77.26
28628;BME280;15815;46.760;19.604;2023-09-08T03:29:14;100868.31;;;16.68;79.29
28628;BME280;15815;46.760;19.604;2023-09-08T03:31:40;100887.69;;;16.73;78.38
28628;BME280;15815;46.760;19.604;2023-09-08T03:34:05;100893.75;;;16.75;78.28
28628;BME280;15815;46.760;19.604;2023-09-08T03:36:31;100875.31;;;16.60;76.65
28628;BME280;15815;46.760;19.604;2023-09-08T03:38:57;100870.50;;;16.57;76.93
28628;BME280;15815;46.760;19.604;2023-09-08T03:41:22;100885.06;;;16.59;77.40
28628;BME280;15815;46.760;19.604;2023-09-08T03:43:49;100872.63;;;16.53;78.26
28628;BME280;15815;46.760;19.604;2023-09-08T03:46:14;100870.22;;;16.51;79.22
28628;BME280;15815;46.760;19.604;2023-09-08T03:48:40;100858.56;;;16.46;77.92
28628;BME280;15815;46.760;19.604;2023-09-08T03:51:05;100885.13;;;16.55;77.75
28628;BME280;15815;46.760;19.604;2023-09-08T03:53:31;100869.94;;;16.42;78.35
28628;BME280;15815;46.760;19.604;2023-09-08T03:55:56;100865.88;;;16.43;78.01
28628;BME280;15815;46.760;19.604;2023-09-08T03:58:22;100873.59;;;16.43;79.64
28628;BME280;15815;46.760;19.604;2023-09-08T04:00:47;100869.16;;;16.42;78.85
28628;BME280;15815;46.760;19.604;2023-09-08T04:03:13;100882.78;;;16.50;78.63
28628;BME280;15815;46.760;19.604;2023-09-08T04:05:38;100875.31;;;16.36;78.59
28628;BME280;15815;46.760;19.604;2023-09-08T04:08:04;100870.13;;;16.31;79.01
28628;BME280;15815;46.760;19.604;2023-09-08T04:10:29;100883.81;;;16.36;78.82
28628;BME280;15815;46.760;19.604;2023-09-08T04:12:55;100884.56;;;16.41;79.12
28628;BME280;15815;46.760;19.604;2023-09-08T04:15:20;100894.38;;;16.36;79.58
28628;BME280;15815;46.760;19.604;2023-09-08T04:17:46;100887.16;;;16.31;79.88
28628;BME280;15815;46.760;19.604;2023-09-08T04:20:11;100883.16;;;16.29;79.61
28628;BME280;15815;46.760;19.604;2023-09-08T04:25:19;100891.84;;;16.42;79.65
28628;BME280;15815;46.760;19.604;2023-09-08T04:27:44;100899.53;;;16.45;78.95
28628;BME280;15815;46.760;19.604;2023-09-08T04:30:10;100893.84;;;16.45;79.50
28628;BME280;15815;46.760;19.604;2023-09-08T04:32:38;100898.75;;;16.41;80.59
28628;BME280;15815;46.760;19.604;2023-09-08T04:35:04;100898.31;;;16.42;81.28
28628;BME280;15815;46.760;19.604;2023-09-08T04:37:30;100895.81;;;16.48;79.73
28628;BME280;15815;46.760;19.604;2023-09-08T04:39:56;100900.63;;;16.51;80.26
28628;BME280;15815;46.760;19.604;2023-09-08T04:42:21;100889.34;;;16.47;80.71
28628;BME280;15815;46.760;19.604;2023-09-08T04:44:50;100896.50;;;16.55;79.98
28628;BME280;15815;46.760;19.604;2023-09-08T04:47:15;100911.84;;;16.58;82.55
28628;BME280;15815;46.760;19.604;2023-09-08T04:49:41;100915.78;;;16.64;80.66
28628;BME280;15815;46.760;19.604;2023-09-08T04:52:06;100904.28;;;16.75;80.17
28628;BME280;15815;46.760;19.604;2023-09-08T04:54:32;100883.13;;;16.79;79.32
28628;BME280;15815;46.760;19.604;2023-09-08T04:56:57;100897.41;;;16.95;79.47
28628;BME280;15815;46.760;19.604;2023-09-08T04:59:23;100911.06;;;17.04;79.50
28628;BME280;15815;46.760;19.604;2023-09-08T05:01:49;100904.34;;;17.14;79.13
28628;BME280;15815;46.760;19.604;2023-09-08T05:04:17;100905.16;;;17.15;79.57
28628;BME280;15815;46.760;19.604;2023-09-08T05:06:42;100896.34;;;17.09;79.14
28628;BME280;15815;46.760;19.604;2023-09-08T05:09:08;100907.13;;;17.38;78.88
28628;BME280;15815;46.760;19.604;2023-09-08T05:11:33;100916.03;;;17.59;78.00
28628;BME280;15815;46.760;19.604;2023-09-08T05:13:59;100883.19;;;17.95;76.66
28628;BME280;15815;46.760;19.604;2023-09-08T05:16:24;100889.56;;;18.67;75.07
28628;BME280;15815;46.760;19.604;2023-09-08T05:18:50;100912.78;;;19.40;73.45
28628;BME280;15815;46.760;19.604;2023-09-08T05:21:15;100911.09;;;19.84;72.63
28628;BME280;15815;46.760;19.604;2023-09-08T05:23:41;100909.41;;;20.25;70.00
28628;BME280;15815;46.760;19.604;2023-09-08T05:26:06;100917.72;;;20.70;68.30
28628;BME280;15815;46.760;19.604;2023-09-08T05:28:32;100911.59;;;20.93;69.58
28628;BME280;15815;46.760;19.604;2023-09-08T05:30:57;100924.38;;;21.58;66.91
28628;BME280;15815;46.760;19.604;2023-09-08T05:33:23;100906.44;;;21.88;65.14
28628;BME280;15815;46.760;19.604;2023-09-08T05:35:48;100938.50;;;22.36;64.72
28628;BME280;15815;46.760;19.604;2023-09-08T05:38:14;100927.81;;;22.77;65.26
28628;BME280;15815;46.760;19.604;2023-09-08T05:40:42;100931.56;;;23.23;61.55
28628;BME280;15815;46.760;19.604;2023-09-08T05:43:07;100938.41;;;23.44;66.52
28628;BME280;15815;46.760;19.604;2023-09-08T05:45:33;100936.03;;;23.61;64.49
28628;BME280;15815;46.760;19.604;2023-09-08T05:47:58;100929.63;;;24.35;65.74
28628;BME280;15815;46.760;19.604;2023-09-08T05:50:24;100937.03;;;24.84;62.58
28628;BME280;15815;46.760;19.604;2023-09-08T05:52:50;100923.75;;;25.11;64.30
28628;BME280;15815;46.760;19.604;2023-09-08T05:55:16;100950.06;;;25.57;56.90
28628;BME280;15815;46.760;19.604;2023-09-08T05:57:41;100934.81;;;25.95;55.98
28628;BME280;15815;46.760;19.604;2023-09-08T06:00:07;100920.94;;;25.94;61.09
28628;BME280;15815;46.760;19.604;2023-09-08T06:02:33;100937.47;;;26.58;59.74
28628;BME280;15815;46.760;19.604;2023-09-08T06:04:58;100931.72;;;26.98;56.07
28628;BME280;15815;46.760;19.604;2023-09-08T06:07:24;100959.16;;;27.29;57.08
28628;BME280;15815;46.760;19.604;2023-09-08T06:09:49;100949.44;;;27.06;47.60
28628;BME280;15815;46.760;19.604;2023-09-08T06:12:15;100956.94;;;27.18;51.11
28628;BME280;15815;46.760;19.604;2023-09-08T06:14:40;100950.31;;;27.58;49.70
28628;BME280;15815;46.760;19.604;2023-09-08T06:17:06;100957.97;;;27.61;47.83
28628;BME280;15815;46.760;19.604;2023-09-08T06:19:31;100961.03;;;27.73;47.00
28628;BME280;15815;46.760;19.604;2023-09-08T06:21:57;100946.97;;;28.43;50.57
28628;BME280;15815;46.760;19.604;2023-09-08T06:24:22;100950.00;;;28.66;45.42
28628;BME280;15815;46.760;19.604;2023-09-08T06:26:48;100941.69;;;28.79;48.35
28628;BME280;15815;46.760;19.604;2023-09-08T06:29:13;100952.69;;;29.17;48.12
28628;BME280;15815;46.760;19.604;2023-09-08T06:31:39;100953.06;;;29.42;47.17
28628;BME280;15815;46.760;19.604;2023-09-08T06:34:04;100941.84;;;29.77;44.11
28628;BME280;15815;46.760;19.604;2023-09-08T06:36:30;100951.56;;;29.63;45.94
28628;BME280;15815;46.760;19.604;2023-09-08T06:38:55;100949.81;;;30.44;44.94
28628;BME280;15815;46.760;19.604;2023-09-08T06:41:21;100954.00;;;30.77;41.24
28628;BME280;15815;46.760;19.604;2023-09-08T06:43:46;100932.72;;;31.32;44.90
28628;BME280;15815;46.760;19.604;2023-09-08T06:46:15;100962.31;;;31.83;39.09
28628;BME280;15815;46.760;19.604;2023-09-08T06:48:41;100951.00;;;31.68;38.86
28628;BME280;15815;46.760;19.604;2023-09-08T06:51:06;100952.50;;;31.86;42.34
28628;BME280;15815;46.760;19.604;2023-09-08T06:53:32;100964.97;;;32.16;41.47
28628;BME280;15815;46.760;19.604;2023-09-08T06:55:57;100960.69;;;32.53;42.56
28628;BME280;15815;46.760;19.604;2023-09-08T06:58:23;100954.91;;;33.02;37.85
28628;BME280;15815;46.760;19.604;2023-09-08T07:00:49;100954.78;;;33.13;38.65
28628;BME280;15815;46.760;19.604;2023-09-08T07:03:15;100953.75;;;33.35;36.75
28628;BME280;15815;46.760;19.604;2023-09-08T07:05:41;100962.88;;;33.82;39.19
28628;BME280;15815;46.760;19.604;2023-09-08T07:08:06;100960.94;;;33.90;40.59
28628;BME280;15815;46.760;19.604;2023-09-08T07:10:32;100963.81;;;34.09;34.06
28628;BME280;15815;46.760;19.604;2023-09-08T07:12:58;100962.66;;;34.31;36.88
28628;BME280;15815;46.760;19.604;2023-09-08T07:15:23;100958.94;;;34.62;33.88
28628;BME280;15815;46.760;19.604;2023-09-08T07:17:49;100973.50;;;35.21;37.73
28628;BME280;15815;46.760;19.604;2023-09-08T07:20:14;100960.13;;;35.39;34.50
28628;BME280;15815;46.760;19.604;2023-09-08T07:22:40;100961.81;;;35.81;35.88
28628;BME280;15815;46.760;19.604;2023-09-08T07:25:06;100962.78;;;35.63;35.27
28628;BME280;15815;46.760;19.604;2023-09-08T07:27:31;100961.31;;;36.04;32.83
28628;BME280;15815;46.760;19.604;2023-09-08T07:29:57;100964.91;;;36.51;35.28
28628;BME280;15815;46.760;19.604;2023-09-08T07:32:22;100977.25;;;36.78;31.65
28628;BME280;15815;46.760;19.604;2023-09-08T07:34:48;100969.31;;;36.66;35.90
28628;BME280;15815;46.760;19.604;2023-09-08T07:37:14;100972.72;;;37.27;33.73
28628;BME280;15815;46.760;19.604;2023-09-08T07:39:39;100980.34;;;37.30;34.49
28628;BME280;15815;46.760;19.604;2023-09-08T07:42:04;100970.88;;;37.24;29.60
28628;BME280;15815;46.760;19.604;2023-09-08T07:44:30;100979.13;;;37.61;33.21
28628;BME280;15815;46.760;19.604;2023-09-08T07:46:55;100972.78;;;37.86;30.75
28628;BME280;15815;46.760;19.604;2023-09-08T07:49:21;100974.25;;;38.23;30.41
28628;BME280;15815;46.760;19.604;2023-09-08T07:51:47;100973.66;;;38.17;32.22
28628;BME280;15815;46.760;19.604;2023-09-08T07:54:13;100973.13;;;38.79;32.31
28628;BME280;15815;46.760;19.604;2023-09-08T07:56:39;100967.88;;;39.41;29.29
28628;BME280;15815;46.760;19.604;2023-09-08T07:59:04;100967.31;;;39.35;30.07
28628;BME280;15815;46.760;19.604;2023-09-08T08:01:30;100977.88;;;39.45;32.96
28628;BME280;15815;46.760;19.604;2023-09-08T08:03:55;100967.84;;;40.04;28.13
28628;BME280;15815;46.760;19.604;2023-09-08T08:06:21;100970.97;;;40.06;29.55
28628;BME280;15815;46.760;19.604;2023-09-08T08:15:34;100972.75;;;40.84;31.16
28628;BME280;15815;46.760;19.604;2023-09-08T08:17:59;100978.13;;;41.12;28.36
28628;BME280;15815;46.760;19.604;2023-09-08T08:20:25;100974.50;;;40.79;25.99
28628;BME280;15815;46.760;19.604;2023-09-08T08:22:50;100966.88;;;40.76;30.14
28628;BME280;15815;46.760;19.604;2023-09-08T08:25:16;100968.94;;;40.91;25.71
28628;BME280;15815;46.760;19.604;2023-09-08T08:27:41;100969.28;;;40.70;30.81
28628;BME280;15815;46.760;19.604;2023-09-08T08:30:07;100976.81;;;41.05;27.46
28628;BME280;15815;46.760;19.604;2023-09-08T08:32:33;100978.81;;;41.03;28.71
28628;BME280;15815;46.760;19.604;2023-09-08T08:34:59;100952.28;;;41.20;26.56
28628;BME280;15815;46.760;19.604;2023-09-08T08:37:25;100958.94;;;41.03;25.60
28628;BME280;15815;46.760;19.604;2023-09-08T08:39:50;100951.38;;;41.62;25.30
28628;BME280;15815;46.760;19.604;2023-09-08T08:42:16;100957.78;;;42.12;28.23
28628;BME280;15815;46.760;19.604;2023-09-08T08:44:41;100959.09;;;42.19;26.09
28628;BME280;15815;46.760;19.604;2023-09-08T08:47:08;100952.44;;;42.01;26.54
28628;BME280;15815;46.760;19.604;2023-09-08T08:49:35;100944.97;;;41.73;23.62
28628;BME280;15815;46.760;19.604;2023-09-08T08:52:01;100960.16;;;42.50;23.35
28628;BME280;15815;46.760;19.604;2023-09-08T08:54:28;100948.19;;;42.48;24.91
28628;BME280;15815;46.760;19.604;2023-09-08T08:56:57;100946.09;;;42.78;22.26
28628;BME280;15815;46.760;19.604;2023-09-08T08:59:22;100954.34;;;42.43;24.21
28628;BME280;15815;46.760;19.604;2023-09-08T09:01:48;100952.75;;;42.05;28.35
28628;BME280;15815;46.760;19.604;2023-09-08T09:04:18;100948.31;;;43.26;25.96
28628;BME280;15815;46.760;19.604;2023-09-08T09:06:44;100948.16;;;42.12;26.41
28628;BME280;15815;46.760;19.604;2023-09-08T09:09:09;100940.38;;;43.47;26.72
28628;BME280;15815;46.760;19.604;2023-09-08T09:11:35;100943.28;;;43.96;26.51
28628;BME280;15815;46.760;19.604;2023-09-08T09:14:00;100949.25;;;43.18;23.34
28628;BME280;15815;46.760;19.604;2023-09-08T09:16:26;100944.19;;;42.73;25.11
28628;BME280;15815;46.760;19.604;2023-09-08T09:18:57;100946.94;;;43.46;22.56
28628;BME280;15815;46.760;19.604;2023-09-08T09:21:22;100943.81;;;43.05;23.96
28628;BME280;15815;46.760;19.604;2023-09-08T09:23:48;100944.19;;;42.26;23.84
28628;BME280;15815;46.760;19.604;2023-09-08T09:26:23;100943.66;;;42.11;24.83
28628;BME280;15815;46.760;19.604;2023-09-08T09:28:49;100928.91;;;43.32;24.72
28628;BME280;15815;46.760;19.604;2023-09-08T09:31:15;100934.19;;;43.34;22.49
28628;BME280;15815;46.760;19.604;2023-09-08T09:33:40;100938.50;;;43.62;24.54
28628;BME280;15815;46.760;19.604;2023-09-08T09:36:06;100934.34;;;43.36;25.51
28628;BME280;15815;46.760;19.604;2023-09-08T09:38:34;100943.31;;;43.76;21.09
28628;BME280;15815;46.760;19.604;2023-09-08T09:41:00;100944.75;;;44.57;22.87
28628;BME280;15815;46.760;19.604;2023-09-08T09:43:27;100937.19;;;44.34;24.00
28628;BME280;15815;46.760;19.604;2023-09-08T09:45:53;100927.22;;;44.92;23.07
28628;BME280;15815;46.760;19.604;2023-09-08T09:48:20;100927.66;;;44.15;21.77
28628;BME280;15815;46.760;19.604;2023-09-08T09:50:46;100923.59;;;44.00;22.56
28628;BME280;15815;46.760;19.604;2023-09-08T09:53:13;100923.31;;;44.68;23.28
28628;BME280;15815;46.760;19.604;2023-09-08T09:55:48;100924.00;;;45.42;20.35
28628;BME280;15815;46.760;19.604;2023-09-08T09:58:20;100925.72;;;44.81;19.08
28628;BME280;15815;46.760;19.604;2023-09-08T10:00:46;100920.75;;;43.71;23.38
28628;BME280;15815;46.760;19.604;2023-09-08T10:03:13;100913.97;;;44.93;22.96
28628;BME280;15815;46.760;19.604;2023-09-08T10:05:38;100912.44;;;43.79;23.47
28628;BME280;15815;46.760;19.604;2023-09-08T10:08:04;100920.94;;;44.97;20.82
28628;BME280;15815;46.760;19.604;2023-09-08T10:10:32;100898.66;;;44.13;20.92
28628;BME280;15815;46.760;19.604;2023-09-08T10:13:05;100910.66;;;44.36;24.17
28628;BME280;15815;46.760;19.604;2023-09-08T10:15:33;100916.25;;;45.16;24.04
28628;BME280;15815;46.760;19.604;2023-09-08T10:18:03;100920.75;;;43.13;23.75
28628;BME280;15815;46.760;19.604;2023-09-08T10:20:29;100910.88;;;43.88;24.32
28628;BME280;15815;46.760;19.604;2023-09-08T10:25:30;100907.00;;;44.57;21.47
28628;BME280;15815;46.760;19.604;2023-09-08T10:27:57;100903.03;;;44.12;20.69
28628;BME280;15815;46.760;19.604;2023-09-08T10:30:22;100898.78;;;44.15;23.87
28628;BME280;15815;46.760;19.604;2023-09-08T10:32:49;100907.34;;;45.37;23.25
28628;BME280;15815;46.760;19.604;2023-09-08T10:35:16;100903.16;;;44.97;23.22
28628;BME280;15815;46.760;19.604;2023-09-08T10:37:42;100912.75;;;45.74;23.64
28628;BME280;15815;46.760;19.604;2023-09-08T10:40:24;100906.28;;;45.33;21.39
28628;BME280;15815;46.760;19.604;2023-09-08T10:43:06;100896.28;;;45.49;22.42
28628;BME280;15815;46.760;19.604;2023-09-08T10:45:31;100900.38;;;44.68;22.07
28628;BME280;15815;46.760;19.604;2023-09-08T10:47:57;100896.31;;;44.02;22.32
28628;BME280;15815;46.760;19.604;2023-09-08T10:50:29;100896.50;;;44.35;19.74
28628;BME280;15815;46.760;19.604;2023-09-08T10:53:14;100903.09;;;42.11;20.14
28628;BME280;15815;46.760;19.604;2023-09-08T10:55:48;100901.22;;;41.18;23.13
28628;BME280;15815;46.760;19.604;2023-09-08T10:58:33;100896.41;;;42.11;25.22
28628;BME280;15815;46.760;19.604;2023-09-08T11:01:00;100886.88;;;42.03;22.01
28628;BME280;15815;46.760;19.604;2023-09-08T11:03:28;100889.19;;;42.04;22.90
28628;BME280;15815;46.760;19.604;2023-09-08T11:06:11;100897.38;;;42.23;22.67
28628;BME280;15815;46.760;19.604;2023-09-08T11:08:43;100887.50;;;41.74;22.22
28628;BME280;15815;46.760;19.604;2023-09-08T11:11:16;100891.06;;;41.28;21.06
28628;BME280;15815;46.760;19.604;2023-09-08T11:13:41;100880.47;;;40.31;21.45
28628;BME280;15815;46.760;19.604;2023-09-08T11:16:07;100884.16;;;39.42;22.52
28628;BME280;15815;46.760;19.604;2023-09-08T11:18:34;100883.97;;;39.47;21.87
28628;BME280;15815;46.760;19.604;2023-09-08T11:21:07;100874.34;;;38.99;22.43
28628;BME280;15815;46.760;19.604;2023-09-08T11:23:33;100869.00;;;39.13;21.89
28628;BME280;15815;46.760;19.604;2023-09-08T11:25:59;100864.38;;;38.94;22.96
28628;BME280;15815;46.760;19.604;2023-09-08T11:28:27;100862.50;;;38.13;22.27
28628;BME280;15815;46.760;19.604;2023-09-08T11:30:54;100841.44;;;37.40;24.38
28628;BME280;15815;46.760;19.604;2023-09-08T11:33:21;100859.53;;;37.83;23.39
28628;BME280;15815;46.760;19.604;2023-09-08T11:35:47;100856.16;;;37.56;25.00
28628;BME280;15815;46.760;19.604;2023-09-08T11:38:13;100851.38;;;37.30;23.10
28628;BME280;15815;46.760;19.604;2023-09-08T11:40:40;100825.66;;;37.07;24.59
28628;BME280;15815;46.760;19.604;2023-09-08T11:43:06;100836.44;;;37.12;24.41
28628;BME280;15815;46.760;19.604;2023-09-08T11:45:34;100839.69;;;36.37;25.25
28628;BME280;15815;46.760;19.604;2023-09-08T11:48:00;100842.19;;;35.70;25.30
28628;BME280;15815;46.760;19.604;2023-09-08T11:50:26;100827.56;;;35.70;25.45
28628;BME280;15815;46.760;19.604;2023-09-08T11:52:52;100820.38;;;35.71;26.88
28628;BME280;15815;46.760;19.604;2023-09-08T11:55:19;100835.06;;;35.79;24.55
28628;BME280;15815;46.760;19.604;2023-09-08T11:57:55;100822.66;;;35.86;25.92
28628;BME280;15815;46.760;19.604;2023-09-08T12:00:25;100824.28;;;35.53;27.73
28628;BME280;15815;46.760;19.604;2023-09-08T12:02:51;100821.44;;;35.81;27.60
28628;BME280;15815;46.760;19.604;2023-09-08T12:05:28;100832.22;;;35.86;26.38
28628;BME280;15815;46.760;19.604;2023-09-08T12:07:55;100811.44;;;35.56;28.84
28628;BME280;15815;46.760;19.604;2023-09-08T12:10:21;100812.50;;;35.32;27.39
28628;BME280;15815;46.760;19.604;2023-09-08T12:12:51;100812.16;;;35.49;27.69
28628;BME280;15815;46.760;19.604;2023-09-08T12:15:38;100813.94;;;35.73;27.63
28628;BME280;15815;46.760;19.604;2023-09-08T12:18:05;100805.31;;;35.67;26.59
28628;BME280;15815;46.760;19.604;2023-09-08T12:20:32;100806.88;;;35.47;26.60
28628;BME280;15815;46.760;19.604;2023-09-08T12:23:06;100796.91;;;34.82;26.89
28628;BME280;15815;46.760;19.604;2023-09-08T12:25:31;100779.28;;;34.75;27.24
28628;BME280;15815;46.760;19.604;2023-09-08T12:27:57;100783.56;;;34.47;27.27
28628;BME280;15815;46.760;19.604;2023-09-08T12:30:23;100785.94;;;34.62;27.72
28628;BME280;15815;46.760;19.604;2023-09-08T12:32:49;100781.19;;;34.72;28.07
28628;BME280;15815;46.760;19.604;2023-09-08T12:35:20;100784.25;;;34.66;29.17
28628;BME280;15815;46.760;19.604;2023-09-08T12:37:46;100779.19;;;34.67;27.04
28628;BME280;15815;46.760;19.604;2023-09-08T12:40:14;100773.16;;;34.38;27.43
28628;BME280;15815;46.760;19.604;2023-09-08T12:42:40;100775.50;;;34.27;27.75
28628;BME280;15815;46.760;19.604;2023-09-08T12:45:06;100768.09;;;34.26;28.68
28628;BME280;15815;46.760;19.604;2023-09-08T12:47:31;100772.00;;;34.02;29.35
28628;BME280;15815;46.760;19.604;2023-09-08T12:49:57;100772.28;;;33.85;28.61